createdAt,value
2023-05-14T00:02:10.212Z,84.17
2023-05-14T00:04:38.506Z,84.12
2023-05-14T00:07:10.663Z,84.11
2023-05-14T00:09:38.893Z,84.46
2023-05-14T00:12:07.700Z,84.48
2023-05-14T00:14:35.931Z,84.65
2023-05-14T00:17:04.158Z,84.87
2023-05-14T00:19:33.736Z,85.10
2023-05-14T00:22:01.934Z,83.45
2023-05-14T00:24:30.181Z,82.98
2023-05-14T00:26:58.410Z,83.05
2023-05-14T00:29:26.804Z,83.49
2023-05-14T00:31:55.092Z,83.80
2023-05-14T00:34:23.373Z,83.80
2023-05-14T00:36:53.813Z,84.09
2023-05-14T00:39:22.012Z,83.86
2023-05-14T00:41:50.174Z,83.85
2023-05-14T00:44:18.344Z,83.53
2023-05-14T00:46:46.706Z,83.65
2023-05-14T00:49:15.001Z,83.34
2023-05-14T00:51:46.842Z,83.32
2023-05-14T00:54:17.966Z,83.01
2023-05-14T00:56:46.856Z,83.12
2023-05-14T00:59:15.311Z,83.25
2023-05-14T01:01:43.674Z,82.67
2023-05-14T01:04:12.897Z,82.53
2023-05-14T01:06:52.444Z,82.38
2023-05-14T01:09:26.740Z,82.86
2023-05-14T01:12:02.109Z,82.30
2023-05-14T01:14:39.426Z,82.51
2023-05-14T01:17:09.102Z,81.91
2023-05-14T01:19:41.414Z,82.11
2023-05-14T01:22:11.191Z,81.07
2023-05-14T01:24:40.047Z,81.76
2023-05-14T01:27:14.726Z,81.62
2023-05-14T01:29:46.661Z,81.39
2023-05-14T01:32:16.296Z,82.53
2023-05-14T01:34:46.283Z,82.99
2023-05-14T01:37:17.512Z,82.56
2023-05-14T01:39:47.206Z,82.95
2023-05-14T01:42:15.839Z,82.95
2023-05-14T01:44:45.502Z,83.19
2023-05-14T01:47:13.777Z,82.38
2023-05-14T01:49:42.003Z,82.59
2023-05-14T01:52:10.131Z,82.24
2023-05-14T01:54:39.769Z,82.20
2023-05-14T01:57:07.880Z,82.13
2023-05-14T01:59:36.981Z,81.71
2023-05-14T02:02:05.435Z,81.65
2023-05-14T02:04:33.661Z,81.85
2023-05-14T02:07:01.855Z,81.75
2023-05-14T02:09:30.770Z,81.64
2023-05-14T02:12:01.079Z,80.87
2023-05-14T02:14:35.231Z,80.95
2023-05-14T02:17:04.072Z,81.44
2023-05-14T02:19:32.376Z,81.19
2023-05-14T02:22:01.127Z,81.49
2023-05-14T02:24:29.365Z,81.43
2023-05-14T02:27:00.167Z,81.72
2023-05-14T02:29:29.984Z,81.18
2023-05-14T02:31:58.420Z,82.10
2023-05-14T02:34:27.138Z,81.55
2023-05-14T02:36:55.673Z,82.01
2023-05-14T02:39:23.884Z,81.67
2023-05-14T02:41:51.977Z,82.11
2023-05-14T02:44:20.167Z,82.26
2023-05-14T02:46:49.852Z,82.18
2023-05-14T02:49:18.169Z,82.31
2023-05-14T02:51:46.357Z,82.29
2023-05-14T02:54:16.547Z,82.68
2023-05-14T02:56:44.866Z,83.04
2023-05-14T02:59:13.074Z,83.03
2023-05-14T03:01:41.912Z,82.86
2023-05-14T03:04:12.019Z,82.61
2023-05-14T03:06:40.170Z,82.86
2023-05-14T03:09:08.533Z,82.23
2023-05-14T03:11:36.860Z,82.53
2023-05-14T03:14:05.075Z,82.47
2023-05-14T03:16:33.445Z,83.12
2023-05-14T03:19:01.639Z,82.78
2023-05-14T03:21:32.691Z,82.13
2023-05-14T03:24:00.987Z,81.88
2023-05-14T03:26:29.181Z,81.66
2023-05-14T03:28:57.280Z,81.59
2023-05-14T03:31:26.471Z,81.69
2023-05-14T03:33:57.976Z,80.80
2023-05-14T03:36:26.217Z,82.00
2023-05-14T03:38:55.830Z,82.17
2023-05-14T03:41:24.737Z,82.63
2023-05-14T03:43:52.923Z,81.90
2023-05-14T03:46:21.108Z,82.03
2023-05-14T03:48:49.360Z,81.46
2023-05-14T03:51:17.677Z,82.13
2023-05-14T03:53:46.188Z,81.79
2023-05-14T03:56:16.272Z,82.11
2023-05-14T03:58:44.438Z,82.05
2023-05-14T04:01:12.806Z,81.34
2023-05-14T04:03:41.231Z,81.72
2023-05-14T04:06:10.200Z,82.47
2023-05-14T04:08:38.386Z,82.48
2023-05-14T04:11:07.471Z,82.68
2023-05-14T04:13:37.160Z,81.92
2023-05-14T04:16:05.736Z,81.44
2023-05-14T04:18:35.389Z,82.22
2023-05-14T04:21:03.885Z,81.19
2023-05-14T04:23:32.559Z,81.08
2023-05-14T04:26:00.756Z,81.50
2023-05-14T04:28:28.869Z,80.68
2023-05-14T04:30:58.420Z,81.91
2023-05-14T04:33:26.560Z,81.63
2023-05-14T04:35:54.940Z,81.62
2023-05-14T04:38:23.357Z,81.78
2023-05-14T04:40:51.660Z,80.60
2023-05-14T04:43:19.819Z,80.73
2023-05-14T04:45:48.044Z,80.90
2023-05-14T04:48:17.687Z,80.36
2023-05-14T04:50:46.133Z,81.37
2023-05-14T04:53:14.331Z,81.12
2023-05-14T04:55:42.459Z,81.43
2023-05-14T04:58:10.663Z,81.94
2023-05-14T05:00:40.168Z,82.28
2023-05-14T05:03:08.921Z,81.60
2023-05-14T05:05:38.733Z,81.15
2023-05-14T05:08:06.960Z,81.51
2023-05-14T05:10:35.425Z,80.33
2023-05-14T05:13:03.533Z,81.45
2023-05-14T05:15:31.839Z,81.00
2023-05-14T05:18:00.058Z,80.75
2023-05-14T05:20:29.065Z,79.76
2023-05-14T05:22:59.562Z,79.04
2023-05-14T05:25:28.381Z,79.37
2023-05-14T05:27:57.018Z,80.88
2023-05-14T05:30:25.484Z,78.87
2023-05-14T05:32:54.034Z,79.52
2023-05-14T05:35:22.279Z,78.72
2023-05-14T05:37:50.587Z,79.82
2023-05-14T05:40:20.320Z,81.07
2023-05-14T05:42:48.447Z,79.49
2023-05-14T05:45:16.668Z,80.63
2023-05-14T05:47:45.051Z,81.25
2023-05-14T05:50:13.614Z,81.66
2023-05-14T05:52:42.251Z,81.01
2023-05-14T05:55:11.193Z,81.14
2023-05-14T05:57:40.751Z,80.95
2023-05-14T06:00:13.931Z,81.27
2023-05-14T06:02:42.659Z,81.34
2023-05-14T06:05:11.863Z,82.15
2023-05-14T06:07:40.453Z,82.18
2023-05-14T06:10:09.560Z,82.10
2023-05-14T06:12:37.779Z,82.14
2023-05-14T06:15:08.860Z,81.92
2023-05-14T06:17:37.110Z,82.52
2023-05-14T06:20:07.986Z,82.42
2023-05-14T06:22:36.552Z,83.53
2023-05-14T06:25:05.415Z,83.68
2023-05-14T06:27:33.793Z,82.35
2023-05-14T06:30:02.167Z,82.89
2023-05-14T06:32:31.820Z,83.51
2023-05-14T06:35:00.152Z,83.13
2023-05-14T06:37:28.415Z,84.12
2023-05-14T06:39:58.771Z,84.26
2023-05-14T06:42:27.465Z,83.46
2023-05-14T06:44:56.124Z,84.94
2023-05-14T06:47:26.709Z,85.34
2023-05-14T06:49:58.873Z,84.50
2023-05-14T06:52:27.317Z,86.23
2023-05-14T06:54:58.382Z,86.99
2023-05-14T06:57:26.797Z,86.36
2023-05-14T06:59:55.037Z,87.10
2023-05-14T07:02:23.264Z,86.48
2023-05-14T07:04:51.553Z,86.59
2023-05-14T07:07:21.684Z,85.83
2023-05-14T07:09:49.893Z,85.65
2023-05-14T07:12:18.304Z,86.43
2023-05-14T07:14:46.816Z,86.27
2023-05-14T07:17:15.140Z,86.56
2023-05-14T07:19:43.428Z,86.99
2023-05-14T07:22:11.647Z,86.17
2023-05-14T07:24:43.328Z,85.42
2023-05-14T07:27:12.565Z,86.38
2023-05-14T07:29:40.916Z,86.27
2023-05-14T07:32:09.164Z,85.32
2023-05-14T07:34:37.541Z,86.28
2023-05-14T07:37:06.240Z,85.06
2023-05-14T07:39:34.478Z,86.08
2023-05-14T07:42:06.225Z,84.77
2023-05-14T07:44:34.553Z,84.00
2023-05-14T07:47:04.310Z,84.95
2023-05-14T07:49:32.588Z,84.85
2023-05-14T07:52:00.882Z,84.05
2023-05-14T07:54:29.172Z,84.89
2023-05-14T07:56:57.402Z,83.88
2023-05-14T07:59:28.198Z,83.27
2023-05-14T08:01:56.908Z,85.99
2023-05-14T08:04:25.284Z,83.26
2023-05-14T08:06:53.655Z,82.61
2023-05-14T08:09:21.865Z,84.87
2023-05-14T08:11:50.285Z,84.57
2023-05-14T08:14:18.498Z,85.21
2023-05-14T08:16:48.723Z,85.59
2023-05-14T08:19:17.665Z,85.26
2023-05-14T08:21:46.462Z,83.72
2023-05-14T08:24:15.252Z,84.59
2023-05-14T08:26:43.564Z,85.45
2023-05-14T08:29:12.949Z,84.84
2023-05-14T08:31:43.187Z,85.62
2023-05-14T08:34:13.033Z,85.44
2023-05-14T08:36:41.379Z,85.82
2023-05-14T08:39:09.765Z,85.56
2023-05-14T08:41:38.759Z,86.46
2023-05-14T08:44:10.561Z,84.80
2023-05-14T08:46:40.092Z,85.90
2023-05-14T08:49:17.818Z,84.43
2023-05-14T08:51:48.613Z,84.75
2023-05-14T08:54:18.279Z,84.61
2023-05-14T08:56:48.199Z,86.00
2023-05-14T08:59:17.731Z,84.07
2023-05-14T09:01:49.452Z,85.36
2023-05-14T09:04:23.314Z,84.61
2023-05-14T09:06:53.591Z,85.84
2023-05-14T09:09:23.258Z,85.24
2023-05-14T09:11:52.685Z,85.11
2023-05-14T09:14:21.817Z,84.98
2023-05-14T09:16:51.825Z,86.27
2023-05-14T09:19:22.414Z,84.83
2023-05-14T09:21:51.462Z,86.31
2023-05-14T09:24:26.269Z,86.16
2023-05-14T09:26:57.496Z,86.80
2023-05-14T09:29:27.558Z,85.57
2023-05-14T09:31:57.995Z,86.12
2023-05-14T09:34:29.912Z,85.67
2023-05-14T09:36:58.893Z,85.92
2023-05-14T09:39:27.652Z,86.45
2023-05-14T09:41:56.497Z,85.85
2023-05-14T09:44:36.382Z,85.38
2023-05-14T09:47:04.892Z,86.62
2023-05-14T09:49:35.478Z,86.35
2023-05-14T09:52:04.236Z,86.40
2023-05-14T09:54:34.466Z,86.47
2023-05-14T09:57:02.911Z,87.34
2023-05-14T09:59:31.417Z,86.64
2023-05-14T10:02:00.600Z,87.03
2023-05-14T10:04:29.209Z,85.84
2023-05-14T10:07:02.311Z,88.35
2023-05-14T10:09:31.303Z,85.29
2023-05-14T10:12:02.131Z,86.77
2023-05-14T10:14:36.866Z,86.06
2023-05-14T10:17:07.992Z,85.29
2023-05-14T10:19:40.574Z,86.98
2023-05-14T10:22:12.877Z,86.51
2023-05-14T10:24:43.456Z,85.47
2023-05-14T10:27:12.331Z,86.42
2023-05-14T10:29:41.147Z,87.00
2023-05-14T10:32:10.573Z,86.51
2023-05-14T10:34:41.602Z,85.91
2023-05-14T10:37:13.505Z,85.51
2023-05-14T10:39:48.493Z,85.07
2023-05-14T10:42:19.590Z,87.02
2023-05-14T10:44:55.194Z,86.01
2023-05-14T10:47:23.915Z,85.46
2023-05-14T10:49:55.185Z,85.39
2023-05-14T10:52:25.619Z,85.67
2023-05-14T10:54:56.074Z,86.44
2023-05-14T10:57:26.373Z,86.26
2023-05-14T10:59:56.172Z,84.70
2023-05-14T11:02:26.660Z,85.63
2023-05-14T11:04:58.118Z,85.92
2023-05-14T11:07:30.305Z,85.67
2023-05-14T11:10:03.532Z,86.00
2023-05-14T11:12:32.532Z,86.35
2023-05-14T11:15:03.960Z,85.98
2023-05-14T11:17:32.812Z,86.45
2023-05-14T11:20:01.575Z,86.49
2023-05-14T11:22:31.349Z,86.52
2023-05-14T11:24:59.757Z,85.88
2023-05-14T11:27:28.135Z,86.99
2023-05-14T11:29:58.182Z,85.99
2023-05-14T11:32:27.413Z,85.97
2023-05-14T11:34:56.049Z,86.05
2023-05-14T11:37:24.838Z,85.80
2023-05-14T11:39:55.995Z,85.99
2023-05-14T11:42:25.965Z,86.89
2023-05-14T11:44:56.767Z,87.14
2023-05-14T11:47:25.195Z,87.19
2023-05-14T11:49:54.814Z,87.16
2023-05-14T11:52:23.351Z,87.11
2023-05-14T11:54:52.040Z,88.13
2023-05-14T11:57:23.906Z,88.21
2023-05-14T11:59:58.741Z,88.43
2023-05-14T12:02:29.858Z,89.53
2023-05-14T12:04:59.122Z,88.98
2023-05-14T12:07:31.510Z,89.52
2023-05-14T12:10:03.482Z,88.42
2023-05-14T12:12:41.348Z,89.17
2023-05-14T12:15:14.853Z,89.46
2023-05-14T12:17:46.517Z,88.58
2023-05-14T12:20:16.153Z,89.83
2023-05-14T12:22:44.768Z,89.03
2023-05-14T12:25:14.867Z,88.68
2023-05-14T12:27:46.297Z,88.80
2023-05-14T12:32:47.064Z,87.04
2023-05-14T12:35:39.675Z,86.48
2023-05-14T12:38:08.362Z,85.63
2023-05-14T12:40:37.818Z,86.16
2023-05-14T12:43:07.895Z,85.44
2023-05-14T12:45:36.655Z,86.40
2023-05-14T12:48:16.865Z,86.19
2023-05-14T12:50:46.757Z,86.56
2023-05-14T12:53:16.436Z,87.37
2023-05-14T12:55:45.868Z,86.12
2023-05-14T12:58:17.849Z,86.24
2023-05-14T13:00:47.536Z,87.36
2023-05-14T13:03:15.984Z,87.29
2023-05-14T13:05:44.438Z,87.73
2023-05-14T13:08:15.002Z,87.68
2023-05-14T13:10:43.358Z,88.38
2023-05-14T13:13:13.074Z,88.57
2023-05-14T13:15:49.097Z,88.93
2023-05-14T13:18:19.498Z,88.33
2023-05-14T13:20:48.651Z,88.72
2023-05-14T13:23:16.875Z,89.27
2023-05-14T13:25:46.133Z,89.67
2023-05-14T13:28:15.845Z,88.68
2023-05-14T13:31:07.115Z,89.23
2023-05-14T13:33:39.536Z,89.71
2023-05-14T13:36:10.224Z,88.93
2023-05-14T13:38:38.886Z,89.52
2023-05-14T13:41:07.567Z,89.92
2023-05-14T13:43:36.921Z,88.20
2023-05-14T13:46:07.580Z,88.45
2023-05-14T13:48:38.071Z,88.89
2023-05-14T13:51:06.569Z,89.05
2023-05-14T13:53:34.997Z,89.77
2023-05-14T13:56:03.661Z,88.91
2023-05-14T13:58:32.237Z,90.25
2023-05-14T14:01:00.573Z,89.49
2023-05-14T14:03:30.286Z,90.66
2023-05-14T14:05:58.740Z,90.32
2023-05-14T14:08:27.056Z,90.69
2023-05-14T14:10:55.827Z,91.26
2023-05-14T14:13:24.560Z,90.53
2023-05-14T14:15:53.084Z,90.69
2023-05-14T14:18:21.535Z,90.80
2023-05-14T14:20:51.350Z,90.98
2023-05-14T14:23:19.796Z,91.15
2023-05-14T14:25:48.040Z,91.17
2023-05-14T14:28:16.320Z,91.25
2023-05-14T14:30:46.742Z,91.49
2023-05-14T14:33:17.107Z,91.94
2023-05-14T14:35:45.664Z,91.54
2023-05-14T14:38:15.421Z,92.09
2023-05-14T14:40:43.655Z,92.15
2023-05-14T14:43:12.639Z,92.07
2023-05-14T14:45:40.952Z,92.51
2023-05-14T14:48:26.726Z,92.60
2023-05-14T14:50:55.639Z,92.23
2023-05-14T14:53:25.837Z,92.07
2023-05-14T14:55:54.446Z,92.22
2023-05-14T14:58:23.053Z,92.58
2023-05-14T15:00:53.078Z,92.73
2023-05-14T15:03:21.995Z,93.12
2023-05-14T15:05:51.238Z,93.13
2023-05-14T15:08:19.546Z,92.86
2023-05-14T15:10:49.459Z,92.61
2023-05-14T15:13:17.761Z,92.38
2023-05-14T15:15:49.229Z,92.37
2023-05-14T15:18:17.522Z,92.51
2023-05-14T15:20:45.898Z,92.43
2023-05-14T15:23:14.284Z,92.21
2023-05-14T15:25:42.601Z,92.29
2023-05-14T15:28:12.534Z,92.69
2023-05-14T15:30:40.987Z,92.74
2023-05-14T15:33:09.805Z,92.55
2023-05-14T15:35:37.990Z,92.36
2023-05-14T15:38:06.336Z,92.40
2023-05-14T15:40:35.368Z,91.80
2023-05-14T15:43:03.654Z,92.17
2023-05-14T15:45:33.477Z,92.14
2023-05-14T15:48:01.790Z,91.83
2023-05-14T15:50:30.398Z,91.94
2023-05-14T15:52:58.708Z,91.19
2023-05-14T15:55:29.900Z,91.39
2023-05-14T15:57:58.438Z,90.55
2023-05-14T16:00:27.180Z,91.13
2023-05-14T16:02:57.667Z,91.02
2023-05-14T16:05:26.033Z,90.62
2023-05-14T16:07:54.524Z,91.08
2023-05-14T16:10:22.893Z,91.61
2023-05-14T16:12:51.638Z,91.02
2023-05-14T16:15:20.050Z,91.18
2023-05-14T16:17:48.920Z,91.40
2023-05-14T16:20:19.156Z,91.19
2023-05-14T16:22:47.444Z,91.20
2023-05-14T16:25:15.744Z,91.50
2023-05-14T16:27:45.014Z,91.04
2023-05-14T16:30:13.763Z,91.09
2023-05-14T16:32:42.515Z,91.55
2023-05-14T16:35:11.079Z,91.69
2023-05-14T16:37:41.011Z,91.57
2023-05-14T16:40:11.724Z,91.69
2023-05-14T16:42:40.256Z,91.36
2023-05-14T16:45:09.984Z,91.61
2023-05-14T16:47:38.672Z,91.92
2023-05-14T16:50:08.973Z,92.28
2023-05-14T16:52:37.642Z,92.36
2023-05-14T16:55:08.215Z,92.53
2023-05-14T16:57:38.912Z,92.43
2023-05-14T17:00:09.614Z,92.60
2023-05-14T17:02:38.237Z,92.29
2023-05-14T17:05:09.682Z,93.02
2023-05-14T17:07:38.852Z,92.52
2023-05-14T17:10:10.070Z,92.80
2023-05-14T17:12:38.289Z,92.46
2023-05-14T17:15:08.452Z,93.06
2023-05-14T17:17:36.818Z,93.24
2023-05-14T17:20:06.821Z,93.29
2023-05-14T17:22:35.852Z,93.05
2023-05-14T17:25:04.430Z,93.31
2023-05-14T17:27:34.364Z,93.24
2023-05-14T17:30:02.644Z,92.94
2023-05-14T17:32:31.525Z,92.70
2023-05-14T17:34:59.974Z,92.80
2023-05-14T17:37:28.225Z,92.60
2023-05-14T17:39:56.698Z,92.68
2023-05-14T17:42:25.265Z,92.64
2023-05-14T17:44:55.070Z,92.45
2023-05-14T17:47:23.902Z,92.54
2023-05-14T17:49:52.190Z,92.70
2023-05-14T17:52:20.980Z,92.17
2023-05-14T17:54:49.625Z,92.30
2023-05-14T17:57:18.113Z,92.24
2023-05-14T17:59:46.665Z,91.79
2023-05-14T18:02:16.634Z,91.62
2023-05-14T18:04:45.063Z,91.59
2023-05-14T18:07:13.659Z,91.18
2023-05-14T18:09:41.969Z,91.47
2023-05-14T18:12:11.029Z,91.29
2023-05-14T18:14:41.917Z,91.25
2023-05-14T18:17:12.011Z,91.34
2023-05-14T18:19:42.198Z,91.57
2023-05-14T18:22:11.603Z,91.50
2023-05-14T18:24:40.155Z,91.57
2023-05-14T18:27:13.533Z,91.37
2023-05-14T18:29:43.771Z,91.44
2023-05-14T18:32:12.581Z,91.24
2023-05-14T18:34:42.635Z,91.35
2023-05-14T18:37:11.567Z,91.55
2023-05-14T18:39:40.281Z,91.79
2023-05-14T18:42:10.553Z,91.84
2023-05-14T18:44:44.479Z,92.04
2023-05-14T18:47:13.504Z,92.01
2023-05-14T18:49:43.741Z,92.16
2023-05-14T18:52:12.616Z,92.35
2023-05-14T18:54:43.666Z,92.31
2023-05-14T18:57:13.994Z,92.25
2023-05-14T18:59:43.033Z,92.36
2023-05-14T19:02:11.820Z,92.25
2023-05-14T19:04:51.124Z,92.37
2023-05-14T19:07:23.167Z,92.42
2023-05-14T19:09:54.181Z,92.60
2023-05-14T19:12:23.647Z,92.60
2023-05-14T19:14:52.998Z,92.45
2023-05-14T19:17:21.824Z,92.32
2023-05-14T19:19:50.571Z,92.41
2023-05-14T19:22:19.702Z,92.26
2023-05-14T19:27:28.304Z,92.14
2023-05-14T19:29:57.212Z,92.01
2023-05-14T19:32:27.330Z,92.34
2023-05-14T19:34:56.388Z,92.52
2023-05-14T19:37:26.794Z,92.44
2023-05-14T19:39:57.205Z,92.73
2023-05-14T19:42:26.432Z,92.87
2023-05-14T19:44:56.473Z,93.09
2023-05-14T19:47:25.735Z,92.98
2023-05-14T19:49:54.630Z,92.72
2023-05-14T19:52:23.281Z,92.73
2023-05-14T19:54:52.651Z,92.59
2023-05-14T19:57:22.462Z,92.40
2023-05-14T19:59:51.177Z,92.64
2023-05-14T20:02:22.285Z,92.70
2023-05-14T20:04:56.034Z,92.65
2023-05-14T20:07:25.252Z,92.45
2023-05-14T20:09:54.513Z,92.46
2023-05-14T20:12:24.794Z,92.62
2023-05-14T20:14:53.409Z,92.46
2023-05-14T20:17:22.002Z,92.48
2023-05-14T20:19:50.492Z,92.86
2023-05-14T20:22:20.770Z,93.07
2023-05-14T20:24:48.999Z,93.31
2023-05-14T20:27:17.756Z,93.37
2023-05-14T20:29:51.299Z,93.28
2023-05-14T20:32:25.083Z,92.84
2023-05-14T20:34:53.674Z,92.30
2023-05-14T20:37:22.216Z,92.62
2023-05-14T20:39:50.765Z,93.23
2023-05-14T20:42:19.237Z,93.21
2023-05-14T20:44:49.059Z,92.78
2023-05-14T20:47:20.448Z,92.89
2023-05-14T20:49:49.213Z,93.09
2023-05-14T20:52:18.010Z,93.31
2023-05-14T20:54:46.612Z,93.20
2023-05-14T20:57:16.887Z,93.40
2023-05-14T20:59:45.076Z,93.53
2023-05-14T21:02:14.966Z,93.44
2023-05-14T21:04:43.618Z,93.50
2023-05-14T21:07:12.023Z,93.43
2023-05-14T21:09:40.418Z,93.46
2023-05-14T21:12:09.448Z,93.62
2023-05-14T21:14:37.722Z,93.70
2023-05-14T21:17:06.370Z,93.67
2023-05-14T21:19:36.168Z,93.64
2023-05-14T21:22:04.282Z,93.57
2023-05-14T21:24:32.472Z,93.59
2023-05-14T21:27:00.721Z,93.59
2023-05-14T21:29:28.968Z,93.46
2023-05-14T21:31:57.449Z,93.42
2023-05-14T21:34:25.714Z,93.19
2023-05-14T21:36:59.404Z,93.24
2023-05-14T21:39:27.680Z,93.29
2023-05-14T21:41:55.953Z,93.13
2023-05-14T21:44:24.190Z,92.95
2023-05-14T21:46:52.481Z,92.94
2023-05-14T21:49:20.665Z,92.91
2023-05-14T21:51:53.068Z,92.81
2023-05-14T21:54:22.977Z,92.93
2023-05-14T21:56:51.241Z,92.90
2023-05-14T21:59:19.431Z,93.08
2023-05-14T22:04:19.134Z,93.18
2023-05-14T22:06:47.613Z,93.26
2023-05-14T22:09:15.754Z,93.23
2023-05-14T22:11:45.451Z,93.37
2023-05-14T22:14:13.679Z,93.32
2023-05-14T22:16:42.152Z,93.32
2023-05-14T22:19:10.550Z,93.12
2023-05-14T22:21:38.769Z,92.89
2023-05-14T22:24:07.605Z,92.66
2023-05-14T22:26:36.431Z,92.64
2023-05-14T22:29:06.044Z,92.69
2023-05-14T22:31:34.281Z,92.86
2023-05-14T22:34:02.409Z,93.07
2023-05-14T22:36:30.626Z,93.11
2023-05-14T22:38:58.882Z,93.05
2023-05-14T22:41:27.110Z,92.72
2023-05-14T22:43:55.354Z,92.55
2023-05-14T22:46:25.153Z,92.52
2023-05-14T22:48:53.428Z,92.18
2023-05-14T22:51:21.639Z,92.16
2023-05-14T22:53:49.827Z,92.13
2023-05-14T22:56:18.270Z,92.14
2023-05-14T22:58:46.446Z,92.04
2023-05-14T23:01:15.009Z,92.30
2023-05-14T23:03:44.577Z,92.45
2023-05-14T23:06:14.577Z,92.34
2023-05-14T23:08:42.743Z,92.28
2023-05-14T23:11:11.308Z,92.47
2023-05-14T23:13:39.510Z,92.43
2023-05-14T23:16:08.081Z,92.53
2023-05-14T23:18:36.387Z,92.72
2023-05-14T23:21:06.180Z,93.08
2023-05-14T23:23:34.371Z,93.10
2023-05-14T23:26:02.889Z,93.35
2023-05-14T23:28:32.091Z,93.31
2023-05-14T23:31:00.396Z,93.26
2023-05-14T23:33:28.605Z,93.28
2023-05-14T23:35:56.947Z,93.37
2023-05-14T23:38:26.779Z,93.44
2023-05-14T23:40:55.023Z,93.43
2023-05-14T23:43:23.768Z,93.42
2023-05-14T23:45:52.126Z,93.35
2023-05-14T23:48:20.555Z,93.38
2023-05-14T23:50:48.883Z,93.38
2023-05-14T23:53:17.139Z,93.43
2023-05-14T23:55:46.791Z,93.37
2023-05-14T23:58:15.098Z,93.16
